RU-0309 weather

Kholodnogorskiy Airfield
Stavropol, Stavropol Krai, Russia

Public forecast

Using degrees Celsius for public forecast. Weather courtesy of forecast.io.

METAR (pilot weather report)

Closest report is Stavropol Shpakovskoye Airport, 7.6 nm (14.0 km) N. Retrieved 2019/08/23 12:30 UTC (13 minutes ago):

URMT 231230Z 08008MPS CAVOK 35/06 Q1013 R07/010070 NOSIG RMK QFE720

TAF (pilot weather forecast)

Forecast is more than 12 hours old.

Closest forecast is Stavropol Shpakovskoye Airport, 7.6 nm (14.0 km) N. Retrieved 2019/08/03 03:15 UTC (20 days ago):

TAF URMT 030200Z 0303/0321 31005G12MPS 9999 SCT020